IZO weather

Izumo Airport
Izumo, Shimane Prefecture, Japan

Public forecast

Using degrees Celsius for public forecast. Weather courtesy of forecast.io.

METAR (pilot weather report)

Report is more than 2 hours old.

Retrieved 2019/05/27 11:00 UTC (3 hours ago):

RJOC 271100Z 19024G37KT 9999 -SHRA FEW035 BKN050 BKN080 22/11 Q1007

TAF (pilot weather forecast)

Retrieved 2019/05/27 12:33 UTC (1 hour ago):

TAF TAF RJOC 271105Z 2712/2818 19016KT 9999 FEW025 BKN050 TEMPO 2712/2719 19020G30KT BECMG 2719/2721 27015KT TEMPO 2721/2800 27018G28KT 4000 SHRA BR BECMG 2809/2812 20004KT